Time;durP1;ratioP1;P1;durP2;ratioP2;P2;SDS_P1;SDS_P2;PMS_P1;PMS_P2;Temp;Humidity;BMP_temperature;BMP_pressure;BME280_temperature;BME280_humidity;BME280_pressure;Samples;Min_cycle;Max_cycle;Signal;HPM_P1;HPM_P2
2023/06/05 00:02:57;;;;;;;11.57;4.70;;;;;;;;;;6341726;28;20030;-79
2023/06/05 00:05:57;;;;;;;9.35;4.13;;;;;;;;;;6344424;28;20321;-79
2023/06/05 00:08:58;;;;;;;8.53;4.90;;;;;;;;;;6344228;28;20023;-79
2023/06/05 00:11:58;;;;;;;8.40;4.60;;;;;;;;;;6338576;28;20650;-79
2023/06/05 00:14:58;;;;;;;7.78;3.97;;;;;;;;;;6342546;28;20020;-79
2023/06/05 00:17:59;;;;;;;8.65;4.15;;;;;;;;;;6344371;28;20023;-79
2023/06/05 00:20:59;;;;;;;8.20;4.40;;;;;;;;;;6344178;28;20011;-80
2023/06/05 00:23:59;;;;;;;8.68;3.95;;;;;;;;;;6344415;28;20771;-79
2023/06/05 00:26:59;;;;;;;7.93;4.28;;;;;;;;;;6341638;28;20020;-79
2023/06/05 00:29:59;;;;;;;10.60;4.90;;;;;;;;;;6339234;28;20019;-79
2023/06/05 00:33:00;;;;;;;8.03;3.83;;;;;;;;;;6340801;28;20339;-84
2023/06/05 00:36:00;;;;;;;10.52;4.43;;;;;;;;;;6337643;28;20327;-84
2023/06/05 00:39:00;;;;;;;8.85;4.93;;;;;;;;;;6339655;28;20537;-84
2023/06/05 00:42:00;;;;;;;6.00;3.47;;;;;;;;;;6339711;28;20521;-84
2023/06/05 00:45:00;;;;;;;12.53;4.10;;;;;;;;;;6342640;28;20285;-84
2023/06/05 00:48:01;;;;;;;7.20;3.90;;;;;;;;;;6337411;28;20254;-84
2023/06/05 00:51:01;;;;;;;5.95;3.30;;;;;;;;;;6340310;28;20286;-84
2023/06/05 00:54:01;;;;;;;8.13;3.40;;;;;;;;;;6334911;28;20545;-84
2023/06/05 00:57:02;;;;;;;11.47;4.17;;;;;;;;;;6337180;28;20020;-84
2023/06/05 01:00:03;;;;;;;8.23;3.63;;;;;;;;;;6341186;28;21040;-84
2023/06/05 01:03:04;;;;;;;5.88;3.05;;;;;;;;;;6344097;28;20027;-84
2023/06/05 01:06:04;;;;;;;9.68;2.92;;;;;;;;;;6344273;28;20042;-84
2023/06/05 01:09:05;;;;;;;5.53;3.20;;;;;;;;;;6345155;28;20382;-84
2023/06/05 01:12:11;;;;;;;8.47;3.57;;;;;;;;;;6337471;28;20492;-84
2023/06/05 01:15:11;;;;;;;8.60;3.40;;;;;;;;;;6345250;28;20032;-84
2023/06/05 01:18:12;;;;;;;7.15;3.13;;;;;;;;;;6335182;28;20451;-84
2023/06/05 01:21:15;;;;;;;9.05;3.55;;;;;;;;;;6343743;28;20031;-80
2023/06/05 01:24:17;;;;;;;7.07;3.10;;;;;;;;;;6336673;28;20089;-79
2023/06/05 01:27:20;;;;;;;8.20;3.55;;;;;;;;;;6337095;28;20111;-79
2023/06/05 01:30:29;;;;;;;5.28;3.20;;;;;;;;;;6336534;28;20016;-79
2023/06/05 01:33:30;;;;;;;5.28;2.40;;;;;;;;;;6336460;28;20024;-79
2023/06/05 01:36:31;;;;;;;5.88;2.75;;;;;;;;;;6338261;28;20023;-79
2023/06/05 01:39:31;;;;;;;4.90;3.17;;;;;;;;;;6343319;28;20018;-79
2023/06/05 01:42:32;;;;;;;8.98;3.88;;;;;;;;;;6341243;28;20020;-79
2023/06/05 01:45:32;;;;;;;6.20;3.10;;;;;;;;;;6343947;28;20436;-79
2023/06/05 01:48:33;;;;;;;9.60;3.92;;;;;;;;;;6337061;28;20638;-79
2023/06/05 01:51:35;;;;;;;10.82;4.68;;;;;;;;;;6330481;28;20052;-79
2023/06/05 01:54:36;;;;;;;7.78;3.55;;;;;;;;;;6337718;28;20035;-79
2023/06/05 01:57:36;;;;;;;11.02;4.25;;;;;;;;;;6344189;28;20363;-79
2023/06/05 02:00:37;;;;;;;8.20;3.70;;;;;;;;;;6345718;28;20042;-79
2023/06/05 02:03:37;;;;;;;9.75;4.53;;;;;;;;;;6349780;28;20050;-79
2023/06/05 02:06:43;;;;;;;9.60;3.80;;;;;;;;;;6350799;28;20062;-79
2023/06/05 02:09:44;;;;;;;7.55;3.58;;;;;;;;;;6340304;28;20269;-79
2023/06/05 02:12:44;;;;;;;8.13;3.03;;;;;;;;;;6350982;28;20039;-79
2023/06/05 02:15:45;;;;;;;7.32;3.78;;;;;;;;;;6344730;28;20016;-79
2023/06/05 02:18:48;;;;;;;6.15;3.13;;;;;;;;;;6342803;28;20041;-79
2023/06/05 02:21:48;;;;;;;5.13;2.95;;;;;;;;;;6348813;28;20023;-79
2023/06/05 02:24:51;;;;;;;6.53;3.07;;;;;;;;;;6348295;28;20485;-79
2023/06/05 02:27:52;;;;;;;8.07;3.75;;;;;;;;;;6345523;28;20265;-79
2023/06/05 02:30:54;;;;;;;9.10;3.22;;;;;;;;;;6343462;28;20038;-80
2023/06/05 02:33:55;;;;;;;9.05;3.58;;;;;;;;;;6335861;28;20427;-79
2023/06/05 02:36:55;;;;;;;7.05;3.33;;;;;;;;;;6345766;28;20077;-79
2023/06/05 02:39:56;;;;;;;7.47;2.90;;;;;;;;;;6344255;28;20019;-80
2023/06/05 02:42:57;;;;;;;7.70;3.73;;;;;;;;;;6344407;28;20269;-79
2023/06/05 02:45:57;;;;;;;4.10;2.70;;;;;;;;;;6347471;28;20043;-79
2023/06/05 02:48:57;;;;;;;6.68;3.30;;;;;;;;;;6330657;28;20397;-79
2023/06/05 02:51:57;;;;;;;5.27;2.73;;;;;;;;;;6347751;28;20408;-84
2023/06/05 02:54:57;;;;;;;8.32;3.20;;;;;;;;;;6342792;28;20281;-84
2023/06/05 02:57:58;;;;;;;4.38;2.63;;;;;;;;;;6347884;28;20421;-84
2023/06/05 03:01:01;;;;;;;4.88;3.08;;;;;;;;;;6345837;28;20055;-83
2023/06/05 03:04:02;;;;;;;7.85;3.50;;;;;;;;;;6345570;28;20027;-84
2023/06/05 03:07:03;;;;;;;9.48;3.40;;;;;;;;;;6343351;28;20088;-84
2023/06/05 03:10:04;;;;;;;6.25;3.33;;;;;;;;;;6340028;28;20042;-84
2023/06/05 03:13:04;;;;;;;7.85;3.63;;;;;;;;;;6344430;28;20020;-83
2023/06/05 03:16:04;;;;;;;5.88;3.15;;;;;;;;;;6342234;28;20825;-83
2023/06/05 03:19:05;;;;;;;5.40;2.33;;;;;;;;;;6347485;28;20560;-83
2023/06/05 03:22:05;;;;;;;9.70;2.90;;;;;;;;;;6345734;28;20020;-83
2023/06/05 03:25:06;;;;;;;9.05;2.58;;;;;;;;;;6346908;28;20265;-83
2023/06/05 03:28:06;;;;;;;4.82;2.70;;;;;;;;;;6344079;28;20054;-83
2023/06/05 03:31:09;;;;;;;6.33;2.87;;;;;;;;;;6345310;28;20016;-83
2023/06/05 03:34:09;;;;;;;3.05;2.17;;;;;;;;;;6340290;28;20292;-84
2023/06/05 03:37:09;;;;;;;5.63;3.30;;;;;;;;;;6339778;28;20031;-84
2023/06/05 03:40:10;;;;;;;4.32;2.67;;;;;;;;;;6335697;28;20586;-84
2023/06/05 03:43:10;;;;;;;6.60;2.33;;;;;;;;;;6340070;28;20073;-83
2023/06/05 03:46:18;;;;;;;4.38;1.90;;;;;;;;;;6348072;28;20529;-84
2023/06/05 03:49:20;;;;;;;5.20;2.15;;;;;;;;;;6348098;28;20040;-83
2023/06/05 03:52:23;;;;;;;5.53;2.80;;;;;;;;;;6344039;28;20065;-84
2023/06/05 03:55:23;;;;;;;4.68;2.80;;;;;;;;;;6337451;28;20055;-84
2023/06/05 03:58:26;;;;;;;7.17;2.20;;;;;;;;;;6346312;28;20024;-83
2023/06/05 04:01:26;;;;;;;4.78;2.95;;;;;;;;;;6343522;28;20481;-79
2023/06/05 04:04:26;;;;;;;5.20;2.20;;;;;;;;;;6344511;28;20031;-79
2023/06/05 04:07:27;;;;;;;7.57;2.97;;;;;;;;;;6340994;28;20265;-79
2023/06/05 04:10:27;;;;;;;6.20;2.70;;;;;;;;;;6332743;28;20076;-79
2023/06/05 04:13:27;;;;;;;3.93;2.17;;;;;;;;;;6342541;28;20020;-79
2023/06/05 04:16:29;;;;;;;4.03;2.97;;;;;;;;;;6339506;28;20068;-79
2023/06/05 04:19:30;;;;;;;;;;;;;;;;;;6339902;28;20019;-79
2023/06/05 04:22:31;;;;;;;3.22;2.08;;;;;;;;;;6342321;28;19911;-79
2023/06/05 04:25:31;;;;;;;4.87;2.23;;;;;;;;;;6331948;28;20102;-79
2023/06/05 04:28:31;;;;;;;5.67;2.57;;;;;;;;;;6341267;28;20081;-79
2023/06/05 04:31:32;;;;;;;3.93;2.60;;;;;;;;;;6343452;28;20030;-79
2023/06/05 04:34:32;;;;;;;4.10;2.33;;;;;;;;;;6342320;28;20032;-79
2023/06/05 04:37:32;;;;;;;4.50;2.57;;;;;;;;;;6341503;28;20114;-79
2023/06/05 04:40:33;;;;;;;4.60;2.40;;;;;;;;;;6343444;28;20021;-79
2023/06/05 04:43:33;;;;;;;4.50;2.67;;;;;;;;;;6336755;28;20089;-79
2023/06/05 04:46:37;;;;;;;3.60;2.20;;;;;;;;;;6343822;28;20503;-79
2023/06/05 04:49:38;;;;;;;5.30;2.80;;;;;;;;;;6339272;28;20024;-79
2023/06/05 04:52:39;;;;;;;4.00;2.63;;;;;;;;;;6339975;28;20382;-78
2023/06/05 04:55:40;;;;;;;11.68;2.65;;;;;;;;;;6337992;28;20142;-79
2023/06/05 04:58:40;;;;;;;11.20;3.10;;;;;;;;;;6342146;28;20396;-79
2023/06/05 05:01:41;;;;;;;4.17;2.33;;;;;;;;;;6332482;28;20057;-79
2023/06/05 05:04:41;;;;;;;4.17;2.23;;;;;;;;;;6336878;28;20035;-79
2023/06/05 05:07:43;;;;;;;5.50;2.13;;;;;;;;;;6342113;28;20023;-80
2023/06/05 05:10:44;;;;;;;5.18;2.30;;;;;;;;;;6342924;28;20123;-84
2023/06/05 05:13:45;;;;;;;6.20;2.10;;;;;;;;;;6342681;28;20023;-84
2023/06/05 05:16:45;;;;;;;6.00;2.73;;;;;;;;;;6332676;28;20030;-85
2023/06/05 05:19:45;;;;;;;3.60;2.00;;;;;;;;;;6338679;28;20028;-84
2023/06/05 05:22:46;;;;;;;4.20;1.87;;;;;;;;;;6338490;28;20027;-84
2023/06/05 05:25:48;;;;;;;10.63;2.70;;;;;;;;;;6340236;28;20129;-84
2023/06/05 05:28:48;;;;;;;5.10;2.70;;;;;;;;;;6339230;28;20035;-84
2023/06/05 05:31:48;;;;;;;7.33;2.50;;;;;;;;;;6338234;28;20032;-84
2023/06/05 05:34:50;;;;;;;5.37;1.90;;;;;;;;;;6344693;28;20030;-85
2023/06/05 05:37:50;;;;;;;8.20;2.40;;;;;;;;;;6346566;28;20073;-85
2023/06/05 05:40:51;;;;;;;3.63;2.17;;;;;;;;;;6344519;28;20477;-84
2023/06/05 05:43:52;;;;;;;9.37;3.07;;;;;;;;;;6338881;28;20020;-85
2023/06/05 05:46:52;;;;;;;4.75;2.35;;;;;;;;;;6346174;28;20015;-85
2023/06/05 05:49:52;;;;;;;4.70;2.20;;;;;;;;;;6346505;28;20032;-85
2023/06/05 05:52:54;;;;;;;8.43;2.25;;;;;;;;;;6342481;28;20024;-85
2023/06/05 05:55:54;;;;;;;6.68;2.83;;;;;;;;;;6346415;28;20011;-84
2023/06/05 05:58:54;;;;;;;4.73;2.00;;;;;;;;;;6348715;28;20098;-85
2023/06/05 06:01:58;;;;;;;5.13;2.47;;;;;;;;;;6346521;28;20024;-83
2023/06/05 06:05:02;;;;;;;4.28;2.15;;;;;;;;;;6343666;28;20020;-82
2023/06/05 06:08:03;;;;;;;5.07;2.28;;;;;;;;;;6345655;28;20028;-83
2023/06/05 06:11:06;;;;;;;;;;;;;;;;;;6348590;28;20011;-84
2023/06/05 06:14:06;;;;;;;5.63;2.50;;;;;;;;;;6347914;28;19947;-83
2023/06/05 06:17:10;;;;;;;5.90;2.17;;;;;;;;;;6343235;28;20507;-84
2023/06/05 06:20:12;;;;;;;7.45;3.20;;;;;;;;;;6341738;28;20385;-83
2023/06/05 06:23:12;;;;;;;6.95;2.72;;;;;;;;;;6343739;27;20016;-78
2023/06/05 06:26:14;;;;;;;;;;;;;;;;;;6338851;28;20056;-78
2023/06/05 06:29:18;;;;;;;8.88;2.92;;;;;;;;;;6344334;28;19939;-77
2023/06/05 06:32:18;;;;;;;5.38;2.38;;;;;;;;;;6344427;28;20035;-78
2023/06/05 06:35:19;;;;;;;;;;;;;;;;;;6347256;28;20146;-78
2023/06/05 06:38:19;;;;;;;12.57;2.40;;;;;;;;;;6346964;28;20380;-78
2023/06/05 06:41:19;;;;;;;;;;;;;;;;;;6343238;28;20785;-77
2023/06/05 06:44:19;;;;;;;6.97;2.40;;;;;;;;;;6346957;28;19912;-78
2023/06/05 06:47:20;;;;;;;;;;;;;;;;;;6340856;28;20519;-78
2023/06/05 06:50:21;;;;;;;4.55;2.13;;;;;;;;;;6344253;28;19915;-78
2023/06/05 06:53:21;;;;;;;10.43;2.15;;;;;;;;;;6339754;28;20028;-78
2023/06/05 06:56:21;;;;;;;10.63;2.40;;;;;;;;;;6345712;28;20016;-77
2023/06/05 06:59:22;;;;;;;6.43;1.87;;;;;;;;;;6342363;28;20070;-78
2023/06/05 07:02:23;;;;;;;5.82;1.77;;;;;;;;;;6339094;27;20016;-78
2023/06/05 07:05:24;;;;;;;4.13;2.28;;;;;;;;;;6345968;28;20141;-78
2023/06/05 07:08:24;;;;;;;7.03;2.43;;;;;;;;;;6344973;28;20016;-78
2023/06/05 07:11:25;;;;;;;8.23;1.80;;;;;;;;;;6343811;28;20306;-78
2023/06/05 07:14:26;;;;;;;6.07;2.90;;;;;;;;;;6343353;28;20012;-78
2023/06/05 07:17:29;;;;;;;4.07;2.10;;;;;;;;;;6339565;28;20545;-78
2023/06/05 07:20:29;;;;;;;7.15;2.00;;;;;;;;;;6342513;28;20381;-78
2023/06/05 07:23:29;;;;;;;7.95;2.22;;;;;;;;;;6337906;28;20030;-78
2023/06/05 07:26:30;;;;;;;8.50;2.33;;;;;;;;;;6345332;28;20473;-78
2023/06/05 07:29:30;;;;;;;4.15;2.15;;;;;;;;;;6340715;28;20023;-79
2023/06/05 07:32:30;;;;;;;4.28;2.58;;;;;;;;;;6341901;28;20024;-79
2023/06/05 07:35:31;;;;;;;8.90;2.80;;;;;;;;;;6344355;28;20015;-79
2023/06/05 07:38:32;;;;;;;6.35;2.70;;;;;;;;;;6344734;28;20020;-79
2023/06/05 07:41:32;;;;;;;3.55;1.63;;;;;;;;;;6339946;28;20045;-79
2023/06/05 07:44:32;;;;;;;5.87;2.20;;;;;;;;;;6339468;28;20028;-79
2023/06/05 07:47:33;;;;;;;5.15;2.05;;;;;;;;;;6344501;28;20416;-78
2023/06/05 07:50:34;;;;;;;5.30;2.20;;;;;;;;;;6343091;28;20448;-78
2023/06/05 07:53:35;;;;;;;6.20;2.47;;;;;;;;;;6339664;28;20035;-78
2023/06/05 07:56:36;;;;;;;5.90;2.20;;;;;;;;;;6344131;28;20015;-78
2023/06/05 07:59:36;;;;;;;4.43;2.35;;;;;;;;;;6343088;28;20078;-79
2023/06/05 08:02:37;;;;;;;6.17;2.00;;;;;;;;;;6340985;28;20060;-78
2023/06/05 08:05:38;;;;;;;5.32;2.08;;;;;;;;;;6340131;28;20020;-78
2023/06/05 08:08:39;;;;;;;7.45;1.65;;;;;;;;;;6330895;28;20496;-79
2023/06/05 08:11:40;;;;;;;5.78;2.20;;;;;;;;;;6341061;28;20008;-79
2023/06/05 08:14:40;;;;;;;4.50;1.83;;;;;;;;;;6341981;28;20443;-78
2023/06/05 08:17:41;;;;;;;4.63;2.20;;;;;;;;;;6334641;28;20020;-79
2023/06/05 08:20:41;;;;;;;7.05;2.05;;;;;;;;;;6344062;28;20034;-84
2023/06/05 08:23:41;;;;;;;8.27;2.63;;;;;;;;;;6344787;28;20579;-84
2023/06/05 08:26:41;;;;;;;;;;;;;;;;;;6337086;28;20027;-83
2023/06/05 08:29:42;;;;;;;6.45;2.15;;;;;;;;;;6343800;28;19930;-85
2023/06/05 08:32:43;;;;;;;6.37;2.10;;;;;;;;;;6339820;28;20027;-85
2023/06/05 08:35:43;;;;;;;;;;;;;;;;;;6344244;28;20068;-86
2023/06/05 08:38:43;;;;;;;4.68;2.10;;;;;;;;;;6337301;28;19976;-84
2023/06/05 08:41:44;;;;;;;8.27;2.20;;;;;;;;;;6340301;28;20072;-78
2023/06/05 08:44:47;;;;;;;;;;;;;;;;;;6341701;28;20019;-78
2023/06/05 08:47:51;;;;;;;4.10;2.33;;;;;;;;;;6328940;28;19994;-78
2023/06/05 08:50:51;;;;;;;5.80;1.80;;;;;;;;;;6341673;28;20062;-78
2023/06/05 08:53:51;;;;;;;;;;;;;;;;;;6336273;28;20028;-78
2023/06/05 08:56:52;;;;;;;6.22;1.83;;;;;;;;;;6340287;28;19911;-78
2023/06/05 08:59:52;;;;;;;;;;;;;;;;;;6342745;28;20031;-78
2023/06/05 09:02:52;;;;;;;3.78;1.65;;;;;;;;;;6341817;28;19907;-78
2023/06/05 09:05:53;;;;;;;4.80;2.58;;;;;;;;;;6341496;28;20019;-77
2023/06/05 09:08:53;;;;;;;5.30;2.03;;;;;;;;;;6340805;28;20485;-77
2023/06/05 09:12:00;;;;;;;5.45;2.55;;;;;;;;;;6342329;28;20015;-77
2023/06/05 09:15:20;;;;;;;6.25;2.10;;;;;;;;;;6342137;28;20023;-77
2023/06/05 09:18:20;;;;;;;4.55;2.20;;;;;;;;;;6339689;28;20023;-77
2023/06/05 09:21:21;;;;;;;6.68;1.90;;;;;;;;;;6342296;28;20043;-77
2023/06/05 09:24:23;;;;;;;5.70;2.53;;;;;;;;;;6341258;28;20094;-77
2023/06/05 09:27:24;;;;;;;8.20;2.50;;;;;;;;;;6336659;28;20024;-77
2023/06/05 09:30:24;;;;;;;8.00;2.10;;;;;;;;;;6337519;28;20027;-77
2023/06/05 09:33:25;;;;;;;5.17;2.37;;;;;;;;;;6344656;28;20277;-81
2023/06/05 09:36:34;;;;;;;6.97;2.58;;;;;;;;;;6333906;28;20454;-82
2023/06/05 09:39:35;;;;;;;7.07;2.00;;;;;;;;;;6344533;28;20408;-82
2023/06/05 09:42:35;;;;;;;4.28;2.55;;;;;;;;;;6338857;28;20038;-82
2023/06/05 09:45:43;;;;;;;8.17;2.57;;;;;;;;;;6347150;28;20020;-83
2023/06/05 09:48:51;;;;;;;5.38;2.17;;;;;;;;;;6345354;28;20050;-83
2023/06/05 09:51:52;;;;;;;4.63;2.38;;;;;;;;;;6338539;28;20125;-77
2023/06/05 09:54:54;;;;;;;4.97;2.63;;;;;;;;;;6336979;28;20382;-77
2023/06/05 09:57:56;;;;;;;4.63;2.13;;;;;;;;;;6339058;28;20015;-77
2023/06/05 10:01:00;;;;;;;5.03;2.10;;;;;;;;;;6338333;28;20098;-77
2023/06/05 10:04:03;;;;;;;3.05;2.38;;;;;;;;;;6331809;28;20032;-77
2023/06/05 10:07:04;;;;;;;3.95;2.15;;;;;;;;;;6341678;28;20494;-77
2023/06/05 10:10:06;;;;;;;3.25;1.95;;;;;;;;;;6342243;28;20654;-77
2023/06/05 10:13:06;;;;;;;5.05;2.58;;;;;;;;;;6338460;28;20111;-77
2023/06/05 10:16:07;;;;;;;5.90;2.43;;;;;;;;;;6340612;28;20021;-77
2023/06/05 10:19:07;;;;;;;11.10;2.75;;;;;;;;;;6343246;28;20031;-77
2023/06/05 10:22:09;;;;;;;3.53;2.00;;;;;;;;;;6346659;28;20027;-77
2023/06/05 10:25:12;;;;;;;5.40;2.25;;;;;;;;;;6345337;28;20266;-77
2023/06/05 10:28:25;;;;;;;3.83;2.30;;;;;;;;;;6346061;27;20028;-77
2023/06/05 10:31:31;;;;;;;3.67;1.80;;;;;;;;;;6345879;27;20089;-77
2023/06/05 10:34:42;;;;;;;6.93;2.20;;;;;;;;;;6337783;28;20026;-77
2023/06/05 10:37:51;;;;;;;10.80;2.17;;;;;;;;;;6346314;28;20363;-77
2023/06/05 10:40:55;;;;;;;4.45;2.22;;;;;;;;;;6345754;28;20022;-77
2023/06/05 10:43:55;;;;;;;6.93;1.95;;;;;;;;;;6341686;28;20031;-77
2023/06/05 10:46:55;;;;;;;5.83;2.10;;;;;;;;;;6346131;28;20416;-77
2023/06/05 10:50:14;;;;;;;3.15;2.20;;;;;;;;;;6345788;28;20069;-78
2023/06/05 10:53:33;;;;;;;7.55;2.75;;;;;;;;;;6343455;28;20044;-77
2023/06/05 10:56:53;;;;;;;5.72;2.15;;;;;;;;;;6339228;28;20104;-77
2023/06/05 11:00:06;;;;;;;3.95;2.20;;;;;;;;;;6347851;28;20027;-77
2023/06/05 11:03:06;;;;;;;11.80;2.55;;;;;;;;;;6349962;28;20177;-81
2023/06/05 11:06:12;;;;;;;4.63;1.93;;;;;;;;;;6350558;28;20016;-81
2023/06/05 11:09:14;;;;;;;7.05;2.20;;;;;;;;;;6354012;28;20015;-82
2023/06/05 11:12:15;;;;;;;8.80;2.40;;;;;;;;;;6354973;28;20034;-82
2023/06/05 11:15:30;;;;;;;4.82;2.55;;;;;;;;;;6346801;28;20020;-83
2023/06/05 11:18:34;;;;;;;2.90;1.92;;;;;;;;;;6354732;28;20051;-83
2023/06/05 11:21:53;;;;;;;4.32;2.50;;;;;;;;;;6346076;28;20049;-81
2023/06/05 11:25:12;;;;;;;6.55;2.88;;;;;;;;;;6346073;28;20027;-82
2023/06/05 11:28:12;;;;;;;5.43;2.40;;;;;;;;;;6347080;28;20072;-80
2023/06/05 11:31:12;;;;;;;4.78;2.33;;;;;;;;;;6332355;28;20024;-82
2023/06/05 11:34:14;;;;;;;3.83;1.93;;;;;;;;;;6348738;28;20059;-83
2023/06/05 11:37:15;;;;;;;4.25;2.08;;;;;;;;;;6350043;28;20534;-82
2023/06/05 11:40:15;;;;;;;;;;;;;;;;;;6347443;28;20026;-83
2023/06/05 11:43:16;;;;;;;7.80;2.22;;;;;;;;;;6341136;28;20022;-82
2023/06/05 11:46:16;;;;;;;6.18;2.30;;;;;;;;;;6349574;28;20044;-83
2023/06/05 11:49:43;;;;;;;5.60;2.80;;;;;;;;;;6344863;28;20030;-83
2023/06/05 11:52:43;;;;;;;5.28;2.10;;;;;;;;;;6336742;27;20046;-78
2023/06/05 11:58:49;;;;;;;3.60;1.90;;;;;;;;;;6342850;28;20122;-77
2023/06/05 12:01:50;;;;;;;3.50;2.27;;;;;;;;;;6342786;28;20452;-77
2023/06/05 12:04:50;;;;;;;3.15;2.03;;;;;;;;;;6339901;28;20115;-77
2023/06/05 12:07:53;;;;;;;11.73;2.60;;;;;;;;;;6338516;28;20023;-78
2023/06/05 12:10:54;;;;;;;5.15;2.20;;;;;;;;;;6345090;27;20107;-82
2023/06/05 12:13:55;;;;;;;8.07;2.63;;;;;;;;;;6345078;28;20024;-82
2023/06/05 12:16:55;;;;;;;;;;;;;;;;;;6345282;28;20015;-83
2023/06/05 12:19:56;;;;;;;7.45;2.30;;;;;;;;;;6341612;28;19911;-83
2023/06/05 12:22:56;;;;;;;;;;;;;;;;;;6340325;28;20042;-82
2023/06/05 12:26:01;;;;;;;5.53;2.63;;;;;;;;;;6347369;28;19935;-82
2023/06/05 12:29:05;;;;;;;5.53;2.80;;;;;;;;;;6340673;28;20023;-82
2023/06/05 12:32:22;;;;;;;9.32;2.30;;;;;;;;;;6342314;28;20511;-82
2023/06/05 12:35:22;;;;;;;8.02;3.05;;;;;;;;;;6348776;28;20027;-82
2023/06/05 12:38:23;;;;;;;;;;;;;;;;;;6351421;28;20023;-83
2023/06/05 12:41:23;;;;;;;7.97;2.40;;;;;;;;;;6340472;28;19961;-82
2023/06/05 12:44:23;;;;;;;5.77;2.83;;;;;;;;;;6331581;28;20550;-82
2023/06/05 12:47:23;;;;;;;5.10;2.20;;;;;;;;;;6347234;28;20023;-83
2023/06/05 12:50:25;;;;;;;5.90;2.43;;;;;;;;;;6336348;28;20090;-83
2023/06/05 12:53:26;;;;;;;4.15;2.10;;;;;;;;;;6337446;28;20497;-82
2023/06/05 12:56:29;;;;;;;5.57;2.17;;;;;;;;;;6333100;28;20061;-83
2023/06/05 12:59:29;;;;;;;4.43;1.98;;;;;;;;;;6341807;28;20432;-83
2023/06/05 13:02:31;;;;;;;7.10;2.33;;;;;;;;;;6334976;28;20027;-78
2023/06/05 13:05:32;;;;;;;3.40;2.38;;;;;;;;;;6341320;28;20035;-78
2023/06/05 13:08:32;;;;;;;5.03;2.57;;;;;;;;;;6337320;28;20032;-78
2023/06/05 13:11:32;;;;;;;4.90;2.40;;;;;;;;;;6337184;28;20031;-78
2023/06/05 13:14:32;;;;;;;5.07;2.30;;;;;;;;;;6338093;28;20023;-78
2023/06/05 13:17:35;;;;;;;5.07;2.47;;;;;;;;;;6341023;28;20462;-79
2023/06/05 13:20:35;;;;;;;3.80;2.45;;;;;;;;;;6338456;28;20026;-79
2023/06/05 13:23:35;;;;;;;3.75;2.33;;;;;;;;;;6339082;28;20106;-78
2023/06/05 13:26:37;;;;;;;7.53;2.53;;;;;;;;;;6337260;28;20016;-79
2023/06/05 13:29:37;;;;;;;4.90;2.50;;;;;;;;;;6340390;28;20095;-78
2023/06/05 13:32:41;;;;;;;5.10;2.10;;;;;;;;;;6333439;28;20076;-76
2023/06/05 13:35:41;;;;;;;4.43;2.55;;;;;;;;;;6339256;28;20020;-76
2023/06/05 13:38:42;;;;;;;6.28;2.25;;;;;;;;;;6333636;28;20015;-76
2023/06/05 13:41:42;;;;;;;4.63;2.60;;;;;;;;;;6335009;28;20044;-78
2023/06/05 13:44:42;;;;;;;3.20;2.33;;;;;;;;;;6334921;28;20538;-79
2023/06/05 13:47:43;;;;;;;7.07;2.13;;;;;;;;;;6339972;28;20015;-76
2023/06/05 13:50:43;;;;;;;3.97;2.20;;;;;;;;;;6334144;28;20056;-76
2023/06/05 13:53:43;;;;;;;3.87;2.37;;;;;;;;;;6337478;28;20760;-78
2023/06/05 13:56:43;;;;;;;3.83;2.33;;;;;;;;;;6341890;28;20016;-78
2023/06/05 13:59:44;;;;;;;6.03;2.20;;;;;;;;;;6342454;28;20023;-78
2023/06/05 14:02:44;;;;;;;4.38;2.30;;;;;;;;;;6346733;28;20016;-78
2023/06/05 14:05:45;;;;;;;6.33;2.30;;;;;;;;;;6346130;28;20028;-78
2023/06/05 14:08:45;;;;;;;5.85;3.33;;;;;;;;;;6350415;28;20019;-78
2023/06/05 14:11:46;;;;;;;4.22;2.15;;;;;;;;;;6349928;28;20027;-78
2023/06/05 14:14:47;;;;;;;5.70;2.65;;;;;;;;;;6352921;28;20094;-77
2023/06/05 14:17:48;;;;;;;6.97;2.58;;;;;;;;;;6351776;28;20090;-78
2023/06/05 14:20:48;;;;;;;6.32;2.85;;;;;;;;;;6342154;28;20092;-77
2023/06/05 14:23:49;;;;;;;6.05;2.35;;;;;;;;;;6341508;28;20020;-78
2023/06/05 14:26:49;;;;;;;7.32;2.50;;;;;;;;;;6343916;28;20020;-78
2023/06/05 14:29:49;;;;;;;6.07;2.77;;;;;;;;;;6345998;28;20027;-78
2023/06/05 14:32:50;;;;;;;4.45;2.10;;;;;;;;;;6343145;28;20024;-77
2023/06/05 14:35:50;;;;;;;5.53;2.23;;;;;;;;;;6344621;28;20549;-77
2023/06/05 14:38:51;;;;;;;7.35;3.35;;;;;;;;;;6345275;28;20018;-77
2023/06/05 14:41:51;;;;;;;6.10;2.43;;;;;;;;;;6338506;28;20387;-77
2023/06/05 14:44:51;;;;;;;5.00;2.50;;;;;;;;;;6345643;28;20262;-77
2023/06/05 14:47:51;;;;;;;9.15;3.05;;;;;;;;;;6344279;28;20076;-78
2023/06/05 14:50:52;;;;;;;7.28;2.45;;;;;;;;;;6338321;28;20785;-77
2023/06/05 14:53:52;;;;;;;7.28;2.65;;;;;;;;;;6340519;28;20027;-78
2023/06/05 14:56:53;;;;;;;3.97;2.23;;;;;;;;;;6337545;28;20059;-77
2023/06/05 14:59:53;;;;;;;5.55;2.58;;;;;;;;;;6340549;28;20274;-77
2023/06/05 15:02:53;;;;;;;6.70;2.53;;;;;;;;;;6338355;28;20020;-77
2023/06/05 15:05:53;;;;;;;;;;;;;;;;;;6342820;28;20016;-77
2023/06/05 15:08:54;;;;;;;5.18;2.63;;;;;;;;;;6343832;27;19955;-77
2023/06/05 15:11:55;;;;;;;;;;;;;;;;;;6346379;28;20493;-79
2023/06/05 15:14:55;;;;;;;5.55;2.90;;;;;;;;;;6344864;28;20464;-77
2023/06/05 15:17:56;;;;;;;7.47;2.83;;;;;;;;;;6344334;28;20043;-79
2023/06/05 15:20:57;;;;;;;4.60;2.75;;;;;;;;;;6345289;28;20102;-79
2023/06/05 15:23:57;;;;;;;5.47;2.77;;;;;;;;;;6341814;28;20020;-78
2023/06/05 15:26:57;;;;;;;3.17;2.10;;;;;;;;;;6339516;28;20106;-77
2023/06/05 15:29:57;;;;;;;;;;;;;;;;;;6336487;28;20024;-78
2023/06/05 15:32:58;;;;;;;9.77;3.08;;;;;;;;;;6336697;28;19949;-78
2023/06/05 15:35:58;;;;;;;4.70;2.67;;;;;;;;;;6342992;28;20359;-78
2023/06/05 15:38:59;;;;;;;4.80;3.08;;;;;;;;;;6338007;28;20055;-78
2023/06/05 15:41:59;;;;;;;4.63;2.58;;;;;;;;;;6339109;28;20023;-78
2023/06/05 15:45:09;;;;;;;6.57;2.90;;;;;;;;;;6343783;28;20102;-78
2023/06/05 15:48:11;;;;;;;5.37;2.20;;;;;;;;;;6341930;28;20042;-78
2023/06/05 15:51:11;;;;;;;3.90;2.55;;;;;;;;;;6340464;28;20764;-79
2023/06/05 15:54:11;;;;;;;4.53;2.50;;;;;;;;;;6338143;28;20023;-78
2023/06/05 15:57:11;;;;;;;5.47;2.73;;;;;;;;;;6344271;28;20026;-78
2023/06/05 16:00:12;;;;;;;11.57;3.20;;;;;;;;;;6343528;28;20031;-78
2023/06/05 16:03:12;;;;;;;7.28;2.95;;;;;;;;;;6347445;28;20047;-78
2023/06/05 16:06:12;;;;;;;11.27;2.93;;;;;;;;;;6357256;28;20022;-79
2023/06/05 16:09:12;;;;;;;7.27;2.90;;;;;;;;;;6375726;28;20340;-78
2023/06/05 16:12:13;;;;;;;6.10;2.20;;;;;;;;;;6365139;28;20461;-78
2023/06/05 16:15:16;;;;;;;9.80;3.13;;;;;;;;;;6361302;28;20035;-78
2023/06/05 16:18:16;;;;;;;7.43;3.03;;;;;;;;;;6360506;28;20189;-78
2023/06/05 16:21:16;;;;;;;6.00;2.97;;;;;;;;;;6352330;28;20104;-78
2023/06/05 16:24:16;;;;;;;4.23;2.77;;;;;;;;;;6347747;27;20087;-78
2023/06/05 16:27:18;;;;;;;6.13;2.70;;;;;;;;;;6340519;28;20054;-78
2023/06/05 16:30:19;;;;;;;5.55;2.75;;;;;;;;;;6339906;28;20031;-78
2023/06/05 16:33:19;;;;;;;6.07;3.47;;;;;;;;;;6338525;28;20027;-82
2023/06/05 16:36:19;;;;;;;7.70;3.13;;;;;;;;;;6331738;28;20032;-82
2023/06/05 16:39:19;;;;;;;7.70;3.00;;;;;;;;;;6343770;28;20118;-83
2023/06/05 16:42:20;;;;;;;4.87;3.03;;;;;;;;;;6341221;28;20359;-82
2023/06/05 16:45:20;;;;;;;13.43;2.93;;;;;;;;;;6344040;28;20039;-83
2023/06/05 16:48:21;;;;;;;9.70;2.57;;;;;;;;;;6325439;28;20027;-82
2023/06/05 16:51:21;;;;;;;8.02;3.20;;;;;;;;;;6341323;28;20071;-78
2023/06/05 16:54:22;;;;;;;7.60;2.37;;;;;;;;;;6333759;28;20405;-78
2023/06/05 16:57:24;;;;;;;6.80;2.88;;;;;;;;;;6343282;28;20720;-78
2023/06/05 17:00:24;;;;;;;5.07;3.43;;;;;;;;;;6341527;28;20098;-78
2023/06/05 17:03:25;;;;;;;7.43;3.08;;;;;;;;;;6341250;28;20027;-78
2023/06/05 17:06:25;;;;;;;7.03;3.17;;;;;;;;;;6342780;28;20440;-78
2023/06/05 17:09:25;;;;;;;4.90;3.03;;;;;;;;;;6342841;28;20492;-78
2023/06/05 17:12:25;;;;;;;4.28;2.88;;;;;;;;;;6336725;28;20023;-78
2023/06/05 17:15:25;;;;;;;7.67;2.77;;;;;;;;;;6338818;28;20680;-78
2023/06/05 17:18:26;;;;;;;4.43;2.75;;;;;;;;;;6340899;28;20023;-77
2023/06/05 17:21:26;;;;;;;6.43;2.90;;;;;;;;;;6342513;28;20208;-77
2023/06/05 17:24:27;;;;;;;5.80;2.90;;;;;;;;;;6335166;28;20036;-77
2023/06/05 17:27:27;;;;;;;7.10;3.25;;;;;;;;;;6342164;28;20221;-77
2023/06/05 17:30:28;;;;;;;6.10;3.30;;;;;;;;;;6339869;28;20543;-77
2023/06/05 17:33:29;;;;;;;9.48;3.40;;;;;;;;;;6341087;28;20020;-77
2023/06/05 17:36:30;;;;;;;7.93;3.60;;;;;;;;;;6340132;28;20120;-77
2023/06/05 17:39:30;;;;;;;6.10;3.10;;;;;;;;;;6336414;28;20446;-77
2023/06/05 17:42:31;;;;;;;7.78;2.60;;;;;;;;;;6341863;28;20016;-77
2023/06/05 17:45:33;;;;;;;5.87;2.83;;;;;;;;;;6341946;28;20031;-77
2023/06/05 17:48:33;;;;;;;5.65;3.10;;;;;;;;;;6338778;28;20020;-77
2023/06/05 17:51:33;;;;;;;6.77;3.10;;;;;;;;;;6339295;28;20525;-77
2023/06/05 17:54:34;;;;;;;6.33;3.23;;;;;;;;;;6338133;28;20063;-77
2023/06/05 17:57:34;;;;;;;9.70;3.38;;;;;;;;;;6341184;28;20424;-77
2023/06/05 18:00:36;;;;;;;5.65;2.67;;;;;;;;;;6340546;28;20019;-81
2023/06/05 18:03:36;;;;;;;6.07;4.07;;;;;;;;;;6349699;28;20031;-81
2023/06/05 18:06:37;;;;;;;13.40;4.72;;;;;;;;;;6352198;28;20015;-81
2023/06/05 18:09:38;;;;;;;9.57;4.60;;;;;;;;;;6353207;28;20016;-81
2023/06/05 18:12:39;;;;;;;11.95;4.15;;;;;;;;;;6349737;28;20020;-82
2023/06/05 18:15:39;;;;;;;;;;;;;;;;;;6348668;28;20041;-82
2023/06/05 18:18:40;;;;;;;7.75;3.85;;;;;;;;;;6350105;28;19904;-82